sensor_id;sensor_type;location;lat;lon;timestamp;P1;durP1;ratioP1;P2;durP2;ratioP2
4634;SDS011;2330;48.158;11.816;2022-12-18T00:01:23;32.08;;;28.83;;
4634;SDS011;2330;48.158;11.816;2022-12-18T00:03:52;34.20;;;30.85;;
4634;SDS011;2330;48.158;11.816;2022-12-18T00:06:20;30.85;;;27.48;;
4634;SDS011;2330;48.158;11.816;2022-12-18T00:08:48;33.65;;;23.88;;
4634;SDS011;2330;48.158;11.816;2022-12-18T00:11:16;26.95;;;20.80;;
4634;SDS011;2330;48.158;11.816;2022-12-18T00:13:45;35.08;;;23.77;;
4634;SDS011;2330;48.158;11.816;2022-12-18T00:16:13;28.75;;;23.98;;
4634;SDS011;2330;48.158;11.816;2022-12-18T00:18:42;36.08;;;25.77;;
4634;SDS011;2330;48.158;11.816;2022-12-18T00:21:10;30.85;;;25.15;;
4634;SDS011;2330;48.158;11.816;2022-12-18T00:23:38;35.30;;;24.35;;
4634;SDS011;2330;48.158;11.816;2022-12-18T00:26:10;32.33;;;25.15;;
4634;SDS011;2330;48.158;11.816;2022-12-18T00:28:38;33.00;;;25.65;;
4634;SDS011;2330;48.158;11.816;2022-12-18T00:31:06;33.85;;;29.60;;
4634;SDS011;2330;48.158;11.816;2022-12-18T00:33:37;39.65;;;35.72;;
4634;SDS011;2330;48.158;11.816;2022-12-18T00:36:06;38.97;;;34.90;;
4634;SDS011;2330;48.158;11.816;2022-12-18T00:38:35;38.78;;;34.83;;
4634;SDS011;2330;48.158;11.816;2022-12-18T00:41:03;38.50;;;34.55;;
4634;SDS011;2330;48.158;11.816;2022-12-18T00:43:31;40.17;;;36.13;;
4634;SDS011;2330;48.158;11.816;2022-12-18T00:45:57;49.50;;;44.17;;
4634;SDS011;2330;48.158;11.816;2022-12-18T00:48:25;49.05;;;43.25;;
4634;SDS011;2330;48.158;11.816;2022-12-18T00:50:52;58.83;;;47.70;;
4634;SDS011;2330;48.158;11.816;2022-12-18T00:53:19;48.05;;;42.90;;
4634;SDS011;2330;48.158;11.816;2022-12-18T00:55:45;89.57;;;66.20;;
4634;SDS011;2330;48.158;11.816;2022-12-18T00:58:14;48.25;;;43.05;;
4634;SDS011;2330;48.158;11.816;2022-12-18T01:00:42;43.22;;;38.58;;
4634;SDS011;2330;48.158;11.816;2022-12-18T01:03:10;41.45;;;37.15;;
4634;SDS011;2330;48.158;11.816;2022-12-18T01:05:40;39.95;;;35.85;;
4634;SDS011;2330;48.158;11.816;2022-12-18T01:08:07;41.42;;;36.92;;
4634;SDS011;2330;48.158;11.816;2022-12-18T01:10:34;43.35;;;38.95;;
4634;SDS011;2330;48.158;11.816;2022-12-18T01:13:01;39.85;;;35.55;;
4634;SDS011;2330;48.158;11.816;2022-12-18T01:15:28;38.63;;;34.78;;
4634;SDS011;2330;48.158;11.816;2022-12-18T01:17:55;40.25;;;36.00;;
4634;SDS011;2330;48.158;11.816;2022-12-18T01:20:22;39.65;;;35.35;;
4634;SDS011;2330;48.158;11.816;2022-12-18T01:22:49;40.08;;;35.95;;
4634;SDS011;2330;48.158;11.816;2022-12-18T01:25:15;40.85;;;36.75;;
4634;SDS011;2330;48.158;11.816;2022-12-18T01:27:42;37.67;;;33.78;;
4634;SDS011;2330;48.158;11.816;2022-12-18T01:30:09;37.83;;;33.60;;
4634;SDS011;2330;48.158;11.816;2022-12-18T01:32:36;37.83;;;34.20;;
4634;SDS011;2330;48.158;11.816;2022-12-18T01:35:03;35.65;;;32.03;;
4634;SDS011;2330;48.158;11.816;2022-12-18T01:37:31;41.30;;;37.00;;
4634;SDS011;2330;48.158;11.816;2022-12-18T01:39:58;38.05;;;34.10;;
4634;SDS011;2330;48.158;11.816;2022-12-18T01:42:25;37.38;;;33.33;;
4634;SDS011;2330;48.158;11.816;2022-12-18T01:47:48;38.17;;;34.28;;
4634;SDS011;2330;48.158;11.816;2022-12-18T01:52:55;36.30;;;32.70;;
4634;SDS011;2330;48.158;11.816;2022-12-18T01:55:26;37.72;;;33.55;;
4634;SDS011;2330;48.158;11.816;2022-12-18T01:57:56;35.88;;;32.38;;
4634;SDS011;2330;48.158;11.816;2022-12-18T02:00:26;36.55;;;32.78;;
4634;SDS011;2330;48.158;11.816;2022-12-18T02:02:53;36.08;;;32.58;;
4634;SDS011;2330;48.158;11.816;2022-12-18T02:05:34;37.28;;;33.42;;
4634;SDS011;2330;48.158;11.816;2022-12-18T02:08:16;38.88;;;34.65;;
4634;SDS011;2330;48.158;11.816;2022-12-18T02:18:53;34.97;;;31.38;;
4634;SDS011;2330;48.158;11.816;2022-12-18T02:27:17;35.05;;;31.55;;
4634;SDS011;2330;48.158;11.816;2022-12-18T02:29:49;37.17;;;33.33;;
4634;SDS011;2330;48.158;11.816;2022-12-18T02:32:27;34.65;;;31.30;;
4634;SDS011;2330;48.158;11.816;2022-12-18T02:34:58;34.35;;;31.00;;
4634;SDS011;2330;48.158;11.816;2022-12-18T02:37:28;34.80;;;31.35;;
4634;SDS011;2330;48.158;11.816;2022-12-18T02:39:57;33.80;;;30.50;;
4634;SDS011;2330;48.158;11.816;2022-12-18T02:42:25;38.38;;;34.33;;
4634;SDS011;2330;48.158;11.816;2022-12-18T02:44:54;35.80;;;32.30;;
4634;SDS011;2330;48.158;11.816;2022-12-18T02:47:22;38.17;;;34.30;;
4634;SDS011;2330;48.158;11.816;2022-12-18T02:52:50;37.70;;;33.85;;
4634;SDS011;2330;48.158;11.816;2022-12-18T03:01:01;39.00;;;34.78;;
4634;SDS011;2330;48.158;11.816;2022-12-18T03:03:46;37.00;;;33.13;;
4634;SDS011;2330;48.158;11.816;2022-12-18T03:08:46;34.13;;;30.63;;
4634;SDS011;2330;48.158;11.816;2022-12-18T03:11:16;34.75;;;31.15;;
4634;SDS011;2330;48.158;11.816;2022-12-18T03:14:03;33.85;;;30.50;;
4634;SDS011;2330;48.158;11.816;2022-12-18T03:16:32;31.63;;;28.38;;
4634;SDS011;2330;48.158;11.816;2022-12-18T03:19:02;34.33;;;30.80;;
4634;SDS011;2330;48.158;11.816;2022-12-18T03:21:37;31.42;;;28.23;;
4634;SDS011;2330;48.158;11.816;2022-12-18T03:24:08;30.23;;;27.23;;
4634;SDS011;2330;48.158;11.816;2022-12-18T03:26:38;29.85;;;26.95;;
4634;SDS011;2330;48.158;11.816;2022-12-18T03:29:08;32.33;;;29.15;;
4634;SDS011;2330;48.158;11.816;2022-12-18T03:31:40;33.67;;;28.75;;
4634;SDS011;2330;48.158;11.816;2022-12-18T03:34:15;31.33;;;28.13;;
4634;SDS011;2330;48.158;11.816;2022-12-18T03:36:47;28.88;;;26.00;;
4634;SDS011;2330;48.158;11.816;2022-12-18T03:39:14;27.38;;;24.70;;
4634;SDS011;2330;48.158;11.816;2022-12-18T03:41:46;25.75;;;23.25;;
4634;SDS011;2330;48.158;11.816;2022-12-18T03:47:15;28.15;;;25.45;;
4634;SDS011;2330;48.158;11.816;2022-12-18T03:49:56;31.98;;;28.73;;
4634;SDS011;2330;48.158;11.816;2022-12-18T03:52:40;31.65;;;28.35;;
4634;SDS011;2330;48.158;11.816;2022-12-18T03:55:15;30.52;;;27.40;;
4634;SDS011;2330;48.158;11.816;2022-12-18T03:57:43;29.27;;;26.13;;
4634;SDS011;2330;48.158;11.816;2022-12-18T04:00:12;30.55;;;27.65;;
4634;SDS011;2330;48.158;11.816;2022-12-18T04:02:46;30.77;;;27.60;;
4634;SDS011;2330;48.158;11.816;2022-12-18T04:05:19;32.97;;;29.42;;
4634;SDS011;2330;48.158;11.816;2022-12-18T04:07:48;28.80;;;25.90;;
4634;SDS011;2330;48.158;11.816;2022-12-18T04:10:17;28.27;;;25.48;;
4634;SDS011;2330;48.158;11.816;2022-12-18T04:12:44;30.20;;;27.25;;
4634;SDS011;2330;48.158;11.816;2022-12-18T04:15:11;29.40;;;26.27;;
4634;SDS011;2330;48.158;11.816;2022-12-18T04:17:39;28.05;;;25.15;;
4634;SDS011;2330;48.158;11.816;2022-12-18T04:20:13;28.63;;;25.80;;
4634;SDS011;2330;48.158;11.816;2022-12-18T04:22:39;30.55;;;27.55;;
4634;SDS011;2330;48.158;11.816;2022-12-18T04:25:07;33.15;;;29.83;;
4634;SDS011;2330;48.158;11.816;2022-12-18T04:27:34;30.55;;;27.25;;
4634;SDS011;2330;48.158;11.816;2022-12-18T04:30:01;29.30;;;26.30;;
4634;SDS011;2330;48.158;11.816;2022-12-18T04:32:28;33.30;;;29.90;;
4634;SDS011;2330;48.158;11.816;2022-12-18T04:34:55;31.13;;;27.92;;
4634;SDS011;2330;48.158;11.816;2022-12-18T04:37:22;30.67;;;27.67;;
4634;SDS011;2330;48.158;11.816;2022-12-18T04:39:49;28.95;;;26.13;;
4634;SDS011;2330;48.158;11.816;2022-12-18T04:42:15;27.60;;;24.90;;
4634;SDS011;2330;48.158;11.816;2022-12-18T04:44:42;29.08;;;26.25;;
4634;SDS011;2330;48.158;11.816;2022-12-18T04:47:09;30.40;;;27.42;;
4634;SDS011;2330;48.158;11.816;2022-12-18T04:49:36;29.25;;;26.17;;
4634;SDS011;2330;48.158;11.816;2022-12-18T04:52:02;30.23;;;27.13;;
4634;SDS011;2330;48.158;11.816;2022-12-18T04:54:29;29.48;;;26.50;;
4634;SDS011;2330;48.158;11.816;2022-12-18T04:56:56;28.88;;;25.77;;
4634;SDS011;2330;48.158;11.816;2022-12-18T04:59:23;31.75;;;28.55;;
4634;SDS011;2330;48.158;11.816;2022-12-18T05:01:50;29.42;;;26.50;;
4634;SDS011;2330;48.158;11.816;2022-12-18T05:04:16;29.55;;;26.63;;
4634;SDS011;2330;48.158;11.816;2022-12-18T05:06:45;31.23;;;28.13;;
4634;SDS011;2330;48.158;11.816;2022-12-18T05:09:12;30.67;;;27.50;;
4634;SDS011;2330;48.158;11.816;2022-12-18T05:11:39;30.98;;;27.77;;
4634;SDS011;2330;48.158;11.816;2022-12-18T05:14:06;29.73;;;26.73;;
4634;SDS011;2330;48.158;11.816;2022-12-18T05:16:33;31.65;;;28.48;;
4634;SDS011;2330;48.158;11.816;2022-12-18T05:19:00;29.05;;;26.05;;
4634;SDS011;2330;48.158;11.816;2022-12-18T05:21:26;30.77;;;27.48;;
4634;SDS011;2330;48.158;11.816;2022-12-18T05:23:53;30.60;;;27.50;;
4634;SDS011;2330;48.158;11.816;2022-12-18T05:26:20;30.65;;;27.55;;
4634;SDS011;2330;48.158;11.816;2022-12-18T05:28:47;29.02;;;26.13;;
4634;SDS011;2330;48.158;11.816;2022-12-18T05:31:14;29.58;;;26.77;;
4634;SDS011;2330;48.158;11.816;2022-12-18T05:33:41;29.63;;;26.42;;
4634;SDS011;2330;48.158;11.816;2022-12-18T05:36:09;27.67;;;25.02;;
4634;SDS011;2330;48.158;11.816;2022-12-18T05:38:37;28.45;;;25.52;;
4634;SDS011;2330;48.158;11.816;2022-12-18T05:41:05;26.73;;;24.17;;
4634;SDS011;2330;48.158;11.816;2022-12-18T05:43:33;26.20;;;23.67;;
4634;SDS011;2330;48.158;11.816;2022-12-18T05:46:03;27.50;;;24.80;;
4634;SDS011;2330;48.158;11.816;2022-12-18T05:48:35;27.77;;;24.98;;
4634;SDS011;2330;48.158;11.816;2022-12-18T05:51:05;24.02;;;21.58;;
4634;SDS011;2330;48.158;11.816;2022-12-18T05:53:35;25.13;;;22.63;;
4634;SDS011;2330;48.158;11.816;2022-12-18T05:56:05;28.60;;;25.88;;
4634;SDS011;2330;48.158;11.816;2022-12-18T05:58:35;26.85;;;24.27;;
4634;SDS011;2330;48.158;11.816;2022-12-18T06:01:06;30.73;;;27.83;;
4634;SDS011;2330;48.158;11.816;2022-12-18T06:03:38;29.15;;;26.35;;
4634;SDS011;2330;48.158;11.816;2022-12-18T06:06:13;29.45;;;26.45;;
4634;SDS011;2330;48.158;11.816;2022-12-18T06:08:41;28.80;;;26.00;;
4634;SDS011;2330;48.158;11.816;2022-12-18T06:11:11;28.05;;;25.30;;
4634;SDS011;2330;48.158;11.816;2022-12-18T06:13:39;27.83;;;24.98;;
4634;SDS011;2330;48.158;11.816;2022-12-18T06:16:06;26.25;;;23.75;;
4634;SDS011;2330;48.158;11.816;2022-12-18T06:18:34;28.02;;;25.23;;
4634;SDS011;2330;48.158;11.816;2022-12-18T06:21:01;27.25;;;24.75;;
4634;SDS011;2330;48.158;11.816;2022-12-18T06:23:28;26.25;;;23.45;;
4634;SDS011;2330;48.158;11.816;2022-12-18T06:25:54;25.27;;;22.98;;
4634;SDS011;2330;48.158;11.816;2022-12-18T06:28:21;25.63;;;23.13;;
4634;SDS011;2330;48.158;11.816;2022-12-18T06:30:48;25.88;;;23.33;;
4634;SDS011;2330;48.158;11.816;2022-12-18T06:33:15;27.70;;;24.83;;
4634;SDS011;2330;48.158;11.816;2022-12-18T06:35:42;25.63;;;23.20;;
4634;SDS011;2330;48.158;11.816;2022-12-18T06:38:09;25.70;;;23.30;;
4634;SDS011;2330;48.158;11.816;2022-12-18T06:40:36;26.55;;;24.05;;
4634;SDS011;2330;48.158;11.816;2022-12-18T06:43:05;25.80;;;23.48;;
4634;SDS011;2330;48.158;11.816;2022-12-18T06:45:32;26.67;;;24.05;;
4634;SDS011;2330;48.158;11.816;2022-12-18T06:47:59;26.58;;;23.88;;
4634;SDS011;2330;48.158;11.816;2022-12-18T06:50:26;24.95;;;22.45;;
4634;SDS011;2330;48.158;11.816;2022-12-18T06:52:53;25.38;;;22.85;;
4634;SDS011;2330;48.158;11.816;2022-12-18T06:55:20;25.52;;;23.02;;
4634;SDS011;2330;48.158;11.816;2022-12-18T06:57:46;26.30;;;23.80;;
4634;SDS011;2330;48.158;11.816;2022-12-18T07:00:13;25.73;;;23.10;;
4634;SDS011;2330;48.158;11.816;2022-12-18T07:02:40;25.63;;;22.98;;
4634;SDS011;2330;48.158;11.816;2022-12-18T07:05:07;26.63;;;24.02;;
4634;SDS011;2330;48.158;11.816;2022-12-18T07:07:36;27.13;;;24.55;;
4634;SDS011;2330;48.158;11.816;2022-12-18T07:10:03;25.95;;;23.30;;
4634;SDS011;2330;48.158;11.816;2022-12-18T07:12:30;25.52;;;22.92;;
4634;SDS011;2330;48.158;11.816;2022-12-18T07:14:57;25.55;;;22.98;;
4634;SDS011;2330;48.158;11.816;2022-12-18T07:17:24;23.08;;;20.88;;
4634;SDS011;2330;48.158;11.816;2022-12-18T07:19:51;23.00;;;20.80;;
4634;SDS011;2330;48.158;11.816;2022-12-18T07:22:17;22.55;;;20.45;;
4634;SDS011;2330;48.158;11.816;2022-12-18T07:24:44;21.92;;;19.85;;
4634;SDS011;2330;48.158;11.816;2022-12-18T07:27:11;20.80;;;18.83;;
4634;SDS011;2330;48.158;11.816;2022-12-18T07:29:38;22.83;;;20.67;;
4634;SDS011;2330;48.158;11.816;2022-12-18T07:32:05;24.30;;;21.88;;
4634;SDS011;2330;48.158;11.816;2022-12-18T07:34:33;24.55;;;22.08;;
4634;SDS011;2330;48.158;11.816;2022-12-18T07:37:00;25.27;;;22.92;;
4634;SDS011;2330;48.158;11.816;2022-12-18T07:39:27;32.10;;;28.23;;
4634;SDS011;2330;48.158;11.816;2022-12-18T07:41:54;25.60;;;23.10;;
4634;SDS011;2330;48.158;11.816;2022-12-18T07:44:39;24.88;;;22.50;;
4634;SDS011;2330;48.158;11.816;2022-12-18T07:47:06;23.33;;;21.02;;
4634;SDS011;2330;48.158;11.816;2022-12-18T07:49:37;23.00;;;20.90;;
4634;SDS011;2330;48.158;11.816;2022-12-18T07:52:04;23.13;;;20.95;;
4634;SDS011;2330;48.158;11.816;2022-12-18T07:54:31;22.90;;;20.67;;
4634;SDS011;2330;48.158;11.816;2022-12-18T07:56:57;22.17;;;19.98;;
4634;SDS011;2330;48.158;11.816;2022-12-18T07:59:24;22.70;;;20.50;;
4634;SDS011;2330;48.158;11.816;2022-12-18T08:01:51;23.42;;;21.23;;
4634;SDS011;2330;48.158;11.816;2022-12-18T08:04:18;22.30;;;20.20;;
4634;SDS011;2330;48.158;11.816;2022-12-18T08:06:45;23.48;;;21.20;;
4634;SDS011;2330;48.158;11.816;2022-12-18T08:09:13;21.05;;;19.05;;
4634;SDS011;2330;48.158;11.816;2022-12-18T08:11:40;21.52;;;19.52;;
4634;SDS011;2330;48.158;11.816;2022-12-18T08:14:07;23.70;;;20.90;;
4634;SDS011;2330;48.158;11.816;2022-12-18T08:16:34;23.13;;;20.67;;
4634;SDS011;2330;48.158;11.816;2022-12-18T08:19:00;20.73;;;18.83;;
4634;SDS011;2330;48.158;11.816;2022-12-18T08:21:28;19.83;;;18.13;;
4634;SDS011;2330;48.158;11.816;2022-12-18T08:24:00;21.05;;;19.08;;
4634;SDS011;2330;48.158;11.816;2022-12-18T08:26:27;21.52;;;19.42;;
4634;SDS011;2330;48.158;11.816;2022-12-18T08:28:56;21.77;;;19.67;;
4634;SDS011;2330;48.158;11.816;2022-12-18T08:31:24;22.67;;;20.40;;
4634;SDS011;2330;48.158;11.816;2022-12-18T08:33:52;21.73;;;19.65;;
4634;SDS011;2330;48.158;11.816;2022-12-18T08:36:20;22.00;;;19.88;;
4634;SDS011;2330;48.158;11.816;2022-12-18T08:38:49;19.58;;;17.77;;
4634;SDS011;2330;48.158;11.816;2022-12-18T08:41:16;21.38;;;19.38;;
4634;SDS011;2330;48.158;11.816;2022-12-18T08:43:44;24.83;;;22.48;;
4634;SDS011;2330;48.158;11.816;2022-12-18T08:46:33;26.27;;;23.88;;
4634;SDS011;2330;48.158;11.816;2022-12-18T08:49:03;21.90;;;19.70;;
4634;SDS011;2330;48.158;11.816;2022-12-18T08:51:30;21.90;;;19.90;;
4634;SDS011;2330;48.158;11.816;2022-12-18T08:53:58;23.10;;;20.95;;
4634;SDS011;2330;48.158;11.816;2022-12-18T08:56:25;23.55;;;21.35;;
4634;SDS011;2330;48.158;11.816;2022-12-18T08:58:52;23.35;;;20.95;;
4634;SDS011;2330;48.158;11.816;2022-12-18T09:01:20;22.25;;;20.15;;
4634;SDS011;2330;48.158;11.816;2022-12-18T09:03:50;20.60;;;18.60;;
4634;SDS011;2330;48.158;11.816;2022-12-18T09:06:19;23.58;;;21.02;;
4634;SDS011;2330;48.158;11.816;2022-12-18T09:08:47;20.90;;;18.90;;
4634;SDS011;2330;48.158;11.816;2022-12-18T09:11:15;20.50;;;18.55;;
4634;SDS011;2330;48.158;11.816;2022-12-18T09:13:49;21.90;;;19.90;;
4634;SDS011;2330;48.158;11.816;2022-12-18T09:16:17;21.85;;;19.80;;
4634;SDS011;2330;48.158;11.816;2022-12-18T09:18:44;22.05;;;19.95;;
4634;SDS011;2330;48.158;11.816;2022-12-18T09:21:13;19.33;;;17.52;;
4634;SDS011;2330;48.158;11.816;2022-12-18T09:23:51;19.27;;;17.50;;
4634;SDS011;2330;48.158;11.816;2022-12-18T09:26:22;22.67;;;20.50;;
4634;SDS011;2330;48.158;11.816;2022-12-18T09:28:50;20.75;;;18.67;;
4634;SDS011;2330;48.158;11.816;2022-12-18T09:31:18;18.38;;;16.75;;
4634;SDS011;2330;48.158;11.816;2022-12-18T09:33:47;19.85;;;17.88;;
4634;SDS011;2330;48.158;11.816;2022-12-18T09:36:14;17.50;;;15.90;;
4634;SDS011;2330;48.158;11.816;2022-12-18T09:38:43;16.70;;;15.25;;
4634;SDS011;2330;48.158;11.816;2022-12-18T09:41:17;18.80;;;17.10;;
4634;SDS011;2330;48.158;11.816;2022-12-18T09:44:09;17.70;;;15.85;;
4634;SDS011;2330;48.158;11.816;2022-12-18T09:50:22;15.82;;;14.32;;
4634;SDS011;2330;48.158;11.816;2022-12-18T09:52:56;17.75;;;16.15;;
4634;SDS011;2330;48.158;11.816;2022-12-18T09:55:34;17.15;;;15.55;;
4634;SDS011;2330;48.158;11.816;2022-12-18T09:58:11;19.63;;;17.67;;
4634;SDS011;2330;48.158;11.816;2022-12-18T10:00:46;17.25;;;15.75;;
4634;SDS011;2330;48.158;11.816;2022-12-18T10:03:14;18.23;;;16.52;;
4634;SDS011;2330;48.158;11.816;2022-12-18T10:08:42;16.75;;;15.13;;
4634;SDS011;2330;48.158;11.816;2022-12-18T10:17:03;17.70;;;16.00;;
4634;SDS011;2330;48.158;11.816;2022-12-18T10:20:02;17.33;;;15.73;;
4634;SDS011;2330;48.158;11.816;2022-12-18T10:28:24;17.13;;;15.55;;
4634;SDS011;2330;48.158;11.816;2022-12-18T10:30:52;18.10;;;16.40;;
4634;SDS011;2330;48.158;11.816;2022-12-18T10:33:20;17.38;;;15.68;;
4634;SDS011;2330;48.158;11.816;2022-12-18T10:35:51;17.52;;;15.82;;
4634;SDS011;2330;48.158;11.816;2022-12-18T10:40:59;16.73;;;15.13;;
4634;SDS011;2330;48.158;11.816;2022-12-18T10:43:31;15.88;;;14.35;;
4634;SDS011;2330;48.158;11.816;2022-12-18T10:46:00;16.63;;;15.13;;
4634;SDS011;2330;48.158;11.816;2022-12-18T10:51:21;17.05;;;15.43;;
4634;SDS011;2330;48.158;11.816;2022-12-18T10:54:01;16.60;;;15.00;;
4634;SDS011;2330;48.158;11.816;2022-12-18T10:56:33;15.88;;;14.40;;
4634;SDS011;2330;48.158;11.816;2022-12-18T10:59:03;17.98;;;16.23;;
4634;SDS011;2330;48.158;11.816;2022-12-18T11:04:31;15.85;;;14.45;;
4634;SDS011;2330;48.158;11.816;2022-12-18T11:09:26;15.48;;;13.98;;
4634;SDS011;2330;48.158;11.816;2022-12-18T11:11:56;16.30;;;14.80;;
4634;SDS011;2330;48.158;11.816;2022-12-18T11:14:29;16.98;;;15.30;;
4634;SDS011;2330;48.158;11.816;2022-12-18T11:16:59;18.30;;;16.52;;
4634;SDS011;2330;48.158;11.816;2022-12-18T11:19:54;16.52;;;14.93;;
4634;SDS011;2330;48.158;11.816;2022-12-18T11:22:30;17.38;;;15.82;;
4634;SDS011;2330;48.158;11.816;2022-12-18T11:27:53;17.45;;;15.95;;
4634;SDS011;2330;48.158;11.816;2022-12-18T11:33:06;18.50;;;16.73;;
4634;SDS011;2330;48.158;11.816;2022-12-18T11:36:12;16.80;;;15.20;;
4634;SDS011;2330;48.158;11.816;2022-12-18T11:38:35;17.60;;;15.90;;
4634;SDS011;2330;48.158;11.816;2022-12-18T11:44:15;17.45;;;15.77;;
4634;SDS011;2330;48.158;11.816;2022-12-18T11:46:50;17.30;;;15.70;;
4634;SDS011;2330;48.158;11.816;2022-12-18T11:49:39;17.55;;;15.85;;
4634;SDS011;2330;48.158;11.816;2022-12-18T11:52:09;16.23;;;14.65;;
4634;SDS011;2330;48.158;11.816;2022-12-18T11:55:00;17.35;;;15.73;;
4634;SDS011;2330;48.158;11.816;2022-12-18T12:00:07;16.40;;;14.70;;
4634;SDS011;2330;48.158;11.816;2022-12-18T12:02:42;17.50;;;15.90;;
4634;SDS011;2330;48.158;11.816;2022-12-18T12:05:56;17.15;;;15.35;;
4634;SDS011;2330;48.158;11.816;2022-12-18T12:11:43;16.15;;;14.73;;
4634;SDS011;2330;48.158;11.816;2022-12-18T12:14:34;18.00;;;16.38;;
4634;SDS011;2330;48.158;11.816;2022-12-18T12:23:01;17.52;;;16.00;;
4634;SDS011;2330;48.158;11.816;2022-12-18T12:31:51;16.95;;;15.40;;
4634;SDS011;2330;48.158;11.816;2022-12-18T12:34:43;15.85;;;14.38;;
4634;SDS011;2330;48.158;11.816;2022-12-18T12:40:29;17.02;;;15.43;;
4634;SDS011;2330;48.158;11.816;2022-12-18T12:43:21;16.38;;;14.88;;
4634;SDS011;2330;48.158;11.816;2022-12-18T12:46:03;15.80;;;14.30;;
4634;SDS011;2330;48.158;11.816;2022-12-18T12:48:54;18.25;;;16.55;;
4634;SDS011;2330;48.158;11.816;2022-12-18T12:51:34;17.50;;;15.73;;
4634;SDS011;2330;48.158;11.816;2022-12-18T12:54:11;17.10;;;15.40;;
4634;SDS011;2330;48.158;11.816;2022-12-18T12:56:55;16.30;;;14.80;;
4634;SDS011;2330;48.158;11.816;2022-12-18T13:10:53;21.20;;;19.20;;
4634;SDS011;2330;48.158;11.816;2022-12-18T13:13:51;19.85;;;17.95;;
4634;SDS011;2330;48.158;11.816;2022-12-18T13:16:23;16.80;;;15.30;;
4634;SDS011;2330;48.158;11.816;2022-12-18T13:18:54;17.52;;;15.90;;
4634;SDS011;2330;48.158;11.816;2022-12-18T13:23:57;18.80;;;17.13;;
4634;SDS011;2330;48.158;11.816;2022-12-18T13:26:47;17.63;;;16.10;;
4634;SDS011;2330;48.158;11.816;2022-12-18T13:29:39;18.58;;;16.83;;
4634;SDS011;2330;48.158;11.816;2022-12-18T13:32:18;19.27;;;17.40;;
4634;SDS011;2330;48.158;11.816;2022-12-18T13:37:44;25.23;;;17.20;;
4634;SDS011;2330;48.158;11.816;2022-12-18T13:45:48;20.55;;;18.45;;
4634;SDS011;2330;48.158;11.816;2022-12-18T13:48:25;19.92;;;18.13;;
4634;SDS011;2330;48.158;11.816;2022-12-18T13:50:55;18.98;;;17.15;;
4634;SDS011;2330;48.158;11.816;2022-12-18T13:56:15;20.00;;;18.10;;
4634;SDS011;2330;48.158;11.816;2022-12-18T14:04:21;20.27;;;18.55;;
4634;SDS011;2330;48.158;11.816;2022-12-18T14:06:57;18.98;;;17.20;;
4634;SDS011;2330;48.158;11.816;2022-12-18T14:09:35;19.60;;;17.80;;
4634;SDS011;2330;48.158;11.816;2022-12-18T14:12:16;19.25;;;17.45;;
4634;SDS011;2330;48.158;11.816;2022-12-18T14:15:31;19.40;;;17.63;;
4634;SDS011;2330;48.158;11.816;2022-12-18T14:20:48;17.30;;;15.80;;
4634;SDS011;2330;48.158;11.816;2022-12-18T14:26:01;17.70;;;16.10;;
4634;SDS011;2330;48.158;11.816;2022-12-18T14:28:31;19.05;;;17.42;;
4634;SDS011;2330;48.158;11.816;2022-12-18T14:30:58;17.92;;;16.33;;
4634;SDS011;2330;48.158;11.816;2022-12-18T14:33:26;17.10;;;15.70;;
4634;SDS011;2330;48.158;11.816;2022-12-18T14:41:20;17.95;;;16.42;;
4634;SDS011;2330;48.158;11.816;2022-12-18T14:43:47;17.73;;;16.23;;
4634;SDS011;2330;48.158;11.816;2022-12-18T14:49:01;19.65;;;17.85;;
4634;SDS011;2330;48.158;11.816;2022-12-18T14:51:51;19.15;;;17.45;;
4634;SDS011;2330;48.158;11.816;2022-12-18T14:54:24;18.77;;;17.10;;
4634;SDS011;2330;48.158;11.816;2022-12-18T14:59:40;18.92;;;17.02;;
4634;SDS011;2330;48.158;11.816;2022-12-18T15:02:14;19.70;;;17.90;;
4634;SDS011;2330;48.158;11.816;2022-12-18T15:07:55;18.90;;;17.20;;
4634;SDS011;2330;48.158;11.816;2022-12-18T15:20:40;20.88;;;18.88;;
4634;SDS011;2330;48.158;11.816;2022-12-18T15:23:20;21.40;;;19.40;;
4634;SDS011;2330;48.158;11.816;2022-12-18T15:25:54;20.50;;;18.50;;
4634;SDS011;2330;48.158;11.816;2022-12-18T15:33:38;21.77;;;19.67;;
4634;SDS011;2330;48.158;11.816;2022-12-18T15:36:11;23.02;;;20.90;;
4634;SDS011;2330;48.158;11.816;2022-12-18T15:38:39;23.77;;;21.38;;
4634;SDS011;2330;48.158;11.816;2022-12-18T15:41:13;19.92;;;18.20;;
4634;SDS011;2330;48.158;11.816;2022-12-18T15:43:49;21.45;;;19.10;;
4634;SDS011;2330;48.158;11.816;2022-12-18T15:46:18;20.17;;;18.27;;
4634;SDS011;2330;48.158;11.816;2022-12-18T15:48:48;20.92;;;19.02;;
4634;SDS011;2330;48.158;11.816;2022-12-18T15:51:28;21.15;;;19.15;;
4634;SDS011;2330;48.158;11.816;2022-12-18T15:54:01;21.88;;;19.77;;
4634;SDS011;2330;48.158;11.816;2022-12-18T15:56:30;21.40;;;19.50;;
4634;SDS011;2330;48.158;11.816;2022-12-18T15:59:19;26.83;;;24.23;;
4634;SDS011;2330;48.158;11.816;2022-12-18T16:01:47;24.77;;;22.58;;
4634;SDS011;2330;48.158;11.816;2022-12-18T16:04:18;22.08;;;20.08;;
4634;SDS011;2330;48.158;11.816;2022-12-18T16:06:47;22.17;;;20.08;;
4634;SDS011;2330;48.158;11.816;2022-12-18T16:09:34;22.40;;;20.27;;
4634;SDS011;2330;48.158;11.816;2022-12-18T16:12:02;22.05;;;20.02;;
4634;SDS011;2330;48.158;11.816;2022-12-18T16:14:29;23.10;;;20.90;;
4634;SDS011;2330;48.158;11.816;2022-12-18T16:17:01;22.02;;;19.92;;
4634;SDS011;2330;48.158;11.816;2022-12-18T16:19:29;20.83;;;18.83;;
4634;SDS011;2330;48.158;11.816;2022-12-18T16:21:57;22.02;;;19.88;;
4634;SDS011;2330;48.158;11.816;2022-12-18T16:24:28;22.67;;;20.58;;
4634;SDS011;2330;48.158;11.816;2022-12-18T16:26:57;23.63;;;21.42;;
4634;SDS011;2330;48.158;11.816;2022-12-18T16:29:26;21.95;;;20.05;;
4634;SDS011;2330;48.158;11.816;2022-12-18T16:31:54;22.20;;;20.20;;
4634;SDS011;2330;48.158;11.816;2022-12-18T16:34:23;20.77;;;18.92;;
4634;SDS011;2330;48.158;11.816;2022-12-18T16:36:59;24.15;;;21.75;;
4634;SDS011;2330;48.158;11.816;2022-12-18T16:39:31;22.77;;;20.77;;
4634;SDS011;2330;48.158;11.816;2022-12-18T16:42:05;22.88;;;20.73;;
4634;SDS011;2330;48.158;11.816;2022-12-18T16:44:35;23.25;;;20.95;;
4634;SDS011;2330;48.158;11.816;2022-12-18T16:47:02;21.88;;;19.88;;
4634;SDS011;2330;48.158;11.816;2022-12-18T16:49:30;21.60;;;19.60;;
4634;SDS011;2330;48.158;11.816;2022-12-18T16:51:56;22.75;;;20.65;;
4634;SDS011;2330;48.158;11.816;2022-12-18T16:54:23;23.10;;;21.10;;
4634;SDS011;2330;48.158;11.816;2022-12-18T16:56:50;24.20;;;21.83;;
4634;SDS011;2330;48.158;11.816;2022-12-18T16:59:18;23.92;;;21.73;;
4634;SDS011;2330;48.158;11.816;2022-12-18T17:01:45;23.67;;;21.50;;
4634;SDS011;2330;48.158;11.816;2022-12-18T17:04:13;23.75;;;21.45;;
4634;SDS011;2330;48.158;11.816;2022-12-18T17:06:43;23.38;;;21.30;;
4634;SDS011;2330;48.158;11.816;2022-12-18T17:09:17;23.90;;;21.60;;
4634;SDS011;2330;48.158;11.816;2022-12-18T17:11:50;23.52;;;21.23;;
4634;SDS011;2330;48.158;11.816;2022-12-18T17:14:18;24.15;;;21.75;;
4634;SDS011;2330;48.158;11.816;2022-12-18T17:16:47;22.73;;;20.52;;
4634;SDS011;2330;48.158;11.816;2022-12-18T17:19:34;24.80;;;22.48;;
4634;SDS011;2330;48.158;11.816;2022-12-18T17:22:01;23.75;;;21.45;;
4634;SDS011;2330;48.158;11.816;2022-12-18T17:24:27;24.20;;;21.95;;
4634;SDS011;2330;48.158;11.816;2022-12-18T17:27:00;23.75;;;21.52;;
4634;SDS011;2330;48.158;11.816;2022-12-18T17:29:27;24.40;;;22.20;;
4634;SDS011;2330;48.158;11.816;2022-12-18T17:31:54;23.60;;;21.17;;
4634;SDS011;2330;48.158;11.816;2022-12-18T17:34:23;24.30;;;21.90;;